createdAt,value
2023-02-01T00:01:15.524Z,101649.13
2023-02-01T00:03:42.249Z,101638.16
2023-02-01T00:06:09.160Z,101641.69
2023-02-01T00:08:36.341Z,101632.34
2023-02-01T00:11:06.420Z,101627.97
2023-02-01T00:13:35.291Z,101635.41
2023-02-01T00:16:20.475Z,101631.81
2023-02-01T00:18:49.370Z,101634.28
2023-02-01T00:21:18.149Z,101637.84
2023-02-01T00:23:45.281Z,101638.16
2023-02-01T00:26:31.237Z,101639.25
2023-02-01T00:28:58.077Z,101633.22
2023-02-01T00:31:25.676Z,101643.91
2023-02-01T00:33:53.755Z,101637.88
2023-02-01T00:36:20.456Z,101629.94
2023-02-01T00:38:47.481Z,101635.41
2023-02-01T00:41:19.317Z,101624.44
2023-02-01T00:43:46.894Z,101632.66
2023-02-01T00:46:15.446Z,101625.25
2023-02-01T00:48:42.509Z,101638.72
2023-02-01T00:51:13.231Z,101632.94
2023-02-01T00:53:40.033Z,101650.75
2023-02-01T00:56:07.313Z,101633.19
2023-02-01T00:58:34.470Z,101644.69
2023-02-01T01:01:07.087Z,101633.69
2023-02-01T01:03:36.149Z,101643.84
2023-02-01T01:06:06.382Z,101642.75
2023-02-01T01:08:33.853Z,101635.34
2023-02-01T01:11:05.669Z,101632.88
2023-02-01T01:13:32.547Z,101637.53
2023-02-01T01:16:03.741Z,101640.59
2023-02-01T01:18:34.715Z,101649.66
2023-02-01T01:21:01.785Z,101637.84
2023-02-01T01:23:29.150Z,101643.63
2023-02-01T01:25:56.120Z,101642.81
2023-02-01T01:28:23.085Z,101634.06
2023-02-01T01:30:50.035Z,101631.56
2023-02-01T01:33:16.864Z,101632.41
2023-02-01T01:35:43.645Z,101629.94
2023-02-01T01:38:12.448Z,101632.97
2023-02-01T01:40:39.727Z,101621.16
2023-02-01T01:43:15.147Z,101625.56
2023-02-01T01:45:42.259Z,101620.03
2023-02-01T01:48:29.543Z,101624.13
2023-02-01T01:51:11.378Z,101616.69
2023-02-01T01:53:45.435Z,101615.06
2023-02-01T01:56:13.433Z,101616.19
2023-02-01T01:58:40.558Z,101609.88
2023-02-01T02:01:07.418Z,101605.78
2023-02-01T02:03:40.291Z,101605.78
2023-02-01T02:06:24.916Z,101593.13
2023-02-01T02:08:52.518Z,101601.38
2023-02-01T02:11:19.484Z,101596.97
2023-02-01T02:13:51.016Z,101589.88
2023-02-01T02:16:40.732Z,101589.34
2023-02-01T02:19:29.367Z,101594.84
2023-02-01T02:22:34.732Z,101593.50
2023-02-01T02:25:23.291Z,101592.66
2023-02-01T02:28:01.772Z,101597.63
2023-02-01T02:30:43.660Z,101583.34
2023-02-01T02:33:43.881Z,101585.28
2023-02-01T02:36:39.076Z,101591.59
2023-02-01T02:39:09.576Z,101588.31
2023-02-01T02:42:39.360Z,101582.84
2023-02-01T02:45:32.781Z,101596.03
2023-02-01T02:48:28.463Z,101596.03
2023-02-01T02:51:16.630Z,101599.31
2023-02-01T02:54:22.535Z,101596.56
2023-02-01T02:57:09.634Z,101598.22
2023-02-01T02:59:56.448Z,101586.09
2023-02-01T03:02:42.286Z,101584.69
2023-02-01T03:05:09.213Z,101576.78
2023-02-01T03:07:44.763Z,101574.03
2023-02-01T03:10:50.267Z,101572.63
2023-02-01T03:13:37.496Z,101568.22
2023-02-01T03:16:27.871Z,101583.91
2023-02-01T03:19:27.638Z,101580.34
2023-02-01T03:24:38.348Z,101575.06
2023-02-01T03:27:12.246Z,101573.97
2023-02-01T03:29:47.720Z,101566.03
2023-02-01T03:32:14.868Z,101568.47
2023-02-01T03:34:42.046Z,101567.41
2023-02-01T03:37:12.659Z,101571.75
2023-02-01T03:40:03.265Z,101585.22
2023-02-01T03:42:38.509Z,101567.91
2023-02-01T03:45:14.323Z,101571.75
2023-02-01T03:47:44.828Z,101573.41
2023-02-01T03:50:16.806Z,101565.16
2023-02-01T03:52:45.069Z,101558.53
2023-02-01T03:55:14.338Z,101564.34
2023-02-01T03:57:52.862Z,101549.78
2023-02-01T04:00:23.532Z,101551.44
2023-02-01T04:02:51.811Z,101544.31
2023-02-01T04:05:18.638Z,101536.06
2023-02-01T04:07:45.693Z,101534.16
2023-02-01T04:10:13.212Z,101528.34
2023-02-01T04:12:40.093Z,101533.25
2023-02-01T04:15:07.501Z,101535.44
2023-02-01T04:17:34.329Z,101522.22
2023-02-01T04:20:01.026Z,101516.16
2023-02-01T04:22:27.689Z,101520.56
2023-02-01T04:24:54.384Z,101494.13
2023-02-01T04:27:21.128Z,101510.03
2023-02-01T04:29:47.837Z,101513.28
2023-02-01T04:32:14.520Z,101502.84
2023-02-01T04:34:41.183Z,101509.16
2023-02-01T04:37:10.563Z,101512.72
2023-02-01T04:39:37.291Z,101508.03
2023-02-01T04:42:04.156Z,101508.34
2023-02-01T04:44:30.845Z,101517.09
2023-02-01T04:46:57.714Z,101518.19
2023-02-01T04:49:26.537Z,101515.47
2023-02-01T04:51:53.395Z,101516.28
2023-02-01T04:54:21.133Z,101513.25
2023-02-01T04:56:47.846Z,101517.09
2023-02-01T04:59:14.648Z,101513.25
2023-02-01T05:01:41.520Z,101507.75
2023-02-01T05:04:08.272Z,101516.53
2023-02-01T05:06:35.861Z,101518.13
2023-02-01T05:09:02.537Z,101516.22
2023-02-01T05:11:47.820Z,101514.28
2023-02-01T05:14:14.470Z,101515.94
2023-02-01T05:16:41.195Z,101522.22
2023-02-01T05:19:07.893Z,101524.47
2023-02-01T05:21:34.559Z,101519.78
2023-02-01T05:24:10.389Z,101528.84
2023-02-01T05:26:38.797Z,101525.28
2023-02-01T05:29:06.662Z,101534.63
2023-02-01T05:31:33.775Z,101547.25
2023-02-01T05:34:00.523Z,101540.34
2023-02-01T05:36:27.436Z,101541.19
2023-02-01T05:38:54.366Z,101542.00
2023-02-01T05:41:21.035Z,101548.31
2023-02-01T05:43:47.699Z,101548.31
2023-02-01T05:46:14.583Z,101543.63
2023-02-01T05:48:43.978Z,101540.88
2023-02-01T05:51:11.603Z,101542.28
2023-02-01T05:53:38.346Z,101532.41
2023-02-01T05:56:05.589Z,101527.72
2023-02-01T05:58:32.457Z,101527.72
2023-02-01T06:01:03.955Z,101530.47
2023-02-01T06:03:30.755Z,101531.59
2023-02-01T06:05:57.547Z,101532.41
2023-02-01T06:08:26.716Z,101543.41
2023-02-01T06:11:02.329Z,101545.34
2023-02-01T06:13:29.520Z,101539.53
2023-02-01T06:15:56.998Z,101531.28
2023-02-01T06:18:25.615Z,101531.28
2023-02-01T06:21:01.482Z,101539.25
2023-02-01T06:23:29.673Z,101533.47
2023-02-01T06:26:05.705Z,101532.34
2023-02-01T06:28:33.829Z,101535.38
2023-02-01T06:31:08.358Z,101534.59
2023-02-01T06:33:36.070Z,101532.63
2023-02-01T06:36:05.443Z,101534.28
2023-02-01T06:38:32.480Z,101524.13
2023-02-01T06:40:59.269Z,101536.72
2023-02-01T06:43:28.221Z,101529.03
2023-02-01T06:45:59.805Z,101537.28
2023-02-01T06:48:26.768Z,101532.56
2023-02-01T06:50:53.511Z,101520.47
2023-02-01T06:53:20.256Z,101526.81
2023-02-01T06:56:02.117Z,101525.16
2023-02-01T06:58:33.838Z,101524.06
2023-02-01T07:01:11.338Z,101523.22
2023-02-01T07:03:38.582Z,101530.38
2023-02-01T07:06:06.166Z,101525.16
2023-02-01T07:08:35.193Z,101537.78
2023-02-01T07:11:06.577Z,101538.63
2023-02-01T07:13:33.353Z,101533.13
2023-02-01T07:16:01.730Z,101538.03
2023-02-01T07:18:30.534Z,101532.22
2023-02-01T07:20:57.852Z,101522.34
2023-02-01T07:23:25.280Z,101542.13
2023-02-01T07:25:56.946Z,101543.47
2023-02-01T07:28:24.816Z,101535.72
2023-02-01T07:30:54.644Z,101546.41
2023-02-01T07:33:23.244Z,101540.34
2023-02-01T07:35:51.167Z,101534.84
2023-02-01T07:38:18.839Z,101553.81
2023-02-01T07:40:45.540Z,101554.59
2023-02-01T07:43:12.248Z,101565.59
2023-02-01T07:45:38.987Z,101556.25
2023-02-01T07:48:05.805Z,101563.13
2023-02-01T07:50:32.836Z,101557.31
2023-02-01T07:53:01.750Z,101564.44
2023-02-01T07:55:29.386Z,101559.78
2023-02-01T07:57:59.838Z,101566.09
2023-02-01T08:00:45.729Z,101572.41
2023-02-01T08:03:12.514Z,101561.44
2023-02-01T08:05:39.301Z,101574.34
2023-02-01T08:08:06.386Z,101571.81
2023-02-01T08:10:33.300Z,101585.28
2023-02-01T08:13:01.040Z,101578.38
2023-02-01T08:15:28.799Z,101591.53
2023-02-01T08:17:56.147Z,101595.09
2023-02-01T08:20:29.696Z,101600.59
2023-02-01T08:22:57.546Z,101592.03
2023-02-01T08:25:24.789Z,101592.03
2023-02-01T08:27:51.943Z,101593.69
2023-02-01T08:30:18.917Z,101593.69
2023-02-01T08:32:45.583Z,101603.28
2023-02-01T08:35:13.282Z,101612.56
2023-02-01T08:37:40.037Z,101608.72
2023-02-01T08:40:07.519Z,101609.22
2023-02-01T08:42:52.035Z,101610.25
2023-02-01T08:45:27.166Z,101607.16
2023-02-01T08:47:53.893Z,101611.78
2023-02-01T08:50:22.137Z,101612.53
2023-02-01T08:52:49.312Z,101620.41
2023-02-01T08:55:16.651Z,101620.03
2023-02-01T08:57:43.771Z,101630.69
2023-02-01T09:00:14.683Z,101629.47
2023-02-01T09:02:41.379Z,101627.19
2023-02-01T09:05:08.546Z,101618.56
2023-02-01T09:07:36.002Z,101634.19
2023-02-01T09:10:03.354Z,101623.91
2023-02-01T09:12:32.299Z,101633.72
2023-02-01T09:15:00.577Z,101641.06
2023-02-01T09:20:00.410Z,101645.38
2023-02-01T09:22:27.283Z,101641.03
2023-02-01T09:24:55.342Z,101649.28
2023-02-01T09:27:23.024Z,101649.28
2023-02-01T09:29:53.583Z,101661.31
2023-02-01T09:32:25.187Z,101652.97
2023-02-01T09:34:53.373Z,101647.09
2023-02-01T09:37:20.971Z,101658.84
2023-02-01T09:39:47.792Z,101655.41
2023-02-01T09:42:39.268Z,101657.25
2023-02-01T09:45:29.217Z,101651.06
2023-02-01T09:48:00.727Z,101653.50
2023-02-01T09:50:51.270Z,101651.25
2023-02-01T09:53:33.253Z,101652.91
2023-02-01T09:56:07.455Z,101658.91
2023-02-01T09:58:57.419Z,101653.94
2023-02-01T10:01:26.582Z,101654.44
2023-02-01T10:04:02.528Z,101640.66
2023-02-01T10:06:39.748Z,101654.97
2023-02-01T10:09:58.976Z,101651.88
2023-02-01T10:12:37.349Z,101662.63
2023-02-01T10:15:20.811Z,101644.34
2023-02-01T10:18:38.671Z,101645.38
2023-02-01T10:22:03.694Z,101658.47
2023-02-01T10:24:47.445Z,101665.31
2023-02-01T10:27:27.258Z,101659.47
2023-02-01T10:30:01.638Z,101652.25
2023-02-01T10:32:35.813Z,101664.63
2023-02-01T10:35:13.960Z,101659.00
2023-02-01T10:37:42.974Z,101655.81
2023-02-01T10:40:22.718Z,101663.91
2023-02-01T10:42:52.383Z,101671.56
2023-02-01T10:45:22.586Z,101667.69
2023-02-01T10:47:51.223Z,101667.06
2023-02-01T10:50:41.655Z,101679.13
2023-02-01T10:53:18.360Z,101670.13
2023-02-01T10:55:53.584Z,101669.16
2023-02-01T10:58:33.813Z,101675.88
2023-02-01T11:01:11.296Z,101683.56
2023-02-01T11:03:45.086Z,101684.06
2023-02-01T11:06:29.192Z,101693.06
2023-02-01T11:09:02.240Z,101688.53
2023-02-01T11:11:30.195Z,101702.53
2023-02-01T11:14:02.826Z,101703.66
2023-02-01T11:16:34.124Z,101712.25
2023-02-01T11:19:00.928Z,101709.81
2023-02-01T11:21:28.681Z,101697.75
2023-02-01T11:23:55.879Z,101705.03
2023-02-01T11:26:27.376Z,101697.34
2023-02-01T11:29:00.931Z,101694.88
2023-02-01T11:31:29.322Z,101691.50
2023-02-01T11:34:05.902Z,101672.91
2023-02-01T11:36:34.865Z,101665.66
2023-02-01T11:39:13.657Z,101678.53
2023-02-01T11:41:59.505Z,101672.69
2023-02-01T11:44:33.890Z,101665.44
2023-02-01T11:47:19.109Z,101682.38
2023-02-01T11:49:45.944Z,101672.38
2023-02-01T11:52:17.874Z,101674.19
2023-02-01T11:55:09.523Z,101663.84
2023-02-01T11:57:54.085Z,101661.59
2023-02-01T12:00:42.313Z,101655.44
2023-02-01T12:03:47.199Z,101654.19
2023-02-01T12:06:13.779Z,101658.56
2023-02-01T12:08:42.441Z,101657.97
2023-02-01T12:11:31.128Z,101641.25
2023-02-01T12:14:20.312Z,101640.97
2023-02-01T12:17:02.007Z,101655.28
2023-02-01T12:19:56.992Z,101654.44
2023-02-01T12:22:58.333Z,101652.44
2023-02-01T12:25:30.948Z,101650.63
2023-02-01T12:28:05.793Z,101646.53
2023-02-01T12:31:13.644Z,101650.41
2023-02-01T12:33:43.193Z,101654.50
2023-02-01T12:36:38.097Z,101637.50
2023-02-01T12:39:37.276Z,101638.69
2023-02-01T12:42:17.117Z,101642.16
2023-02-01T12:45:34.386Z,101626.91
2023-02-01T12:48:36.022Z,101635.34
2023-02-01T12:51:08.699Z,101631.13
2023-02-01T12:53:45.515Z,101635.75
2023-02-01T12:56:20.882Z,101629.59
2023-02-01T12:58:51.835Z,101632.53
2023-02-01T13:01:22.394Z,101620.84
2023-02-01T13:03:57.607Z,101623.78
2023-02-01T13:06:46.091Z,101623.16
2023-02-01T13:09:45.657Z,101623.66
2023-02-01T13:12:17.794Z,101628.03
2023-02-01T13:15:04.754Z,101631.13
2023-02-01T13:17:34.711Z,101637.97
2023-02-01T13:20:25.381Z,101616.34
2023-02-01T13:23:02.316Z,101633.75
2023-02-01T13:25:41.073Z,101632.94
2023-02-01T13:28:25.818Z,101631.81
2023-02-01T13:31:22.364Z,101634.59
2023-02-01T13:34:10.173Z,101624.00
2023-02-01T13:36:46.038Z,101615.44
2023-02-01T13:39:34.446Z,101626.16
2023-02-01T13:42:15.075Z,101622.75
2023-02-01T13:44:59.841Z,101628.16
2023-02-01T13:47:33.768Z,101616.47
2023-02-01T13:50:20.574Z,101611.91
2023-02-01T13:52:54.943Z,101624.94
2023-02-01T13:55:21.721Z,101617.44
2023-02-01T13:58:00.372Z,101631.59
2023-02-01T14:00:35.112Z,101623.59
2023-02-01T14:03:02.902Z,101621.66
2023-02-01T14:05:30.573Z,101612.53
2023-02-01T14:08:08.853Z,101610.94
2023-02-01T14:11:00.831Z,101614.00
2023-02-01T14:13:41.758Z,101609.91
2023-02-01T14:16:17.697Z,101614.31
2023-02-01T14:18:46.688Z,101609.91
2023-02-01T14:21:22.824Z,101613.19
2023-02-01T14:24:03.603Z,101604.56
2023-02-01T14:26:36.450Z,101618.88
2023-02-01T14:29:22.078Z,101614.19
2023-02-01T14:32:07.225Z,101601.19
2023-02-01T14:34:49.106Z,101611.13
2023-02-01T14:37:18.821Z,101611.13
2023-02-01T14:39:45.399Z,101608.84
2023-02-01T14:42:23.176Z,101604.28
2023-02-01T14:44:59.122Z,101606.13
2023-02-01T14:47:30.124Z,101604.47
2023-02-01T14:50:11.729Z,101602.84
2023-02-01T14:52:44.564Z,101602.00
2023-02-01T14:55:28.101Z,101600.06
2023-02-01T14:57:59.158Z,101613.91
2023-02-01T15:00:29.743Z,101605.13
2023-02-01T15:03:21.393Z,101613.41
2023-02-01T15:05:56.117Z,101619.28
2023-02-01T15:08:29.010Z,101620.72
2023-02-01T15:10:57.195Z,101624.13
2023-02-01T15:13:28.624Z,101612.53
2023-02-01T15:16:23.853Z,101622.00
2023-02-01T15:18:50.660Z,101613.19
2023-02-01T15:21:28.922Z,101620.97
2023-02-01T15:24:12.463Z,101620.47
2023-02-01T15:26:39.266Z,101611.69
2023-02-01T15:29:06.008Z,101607.00
2023-02-01T15:31:36.033Z,101622.13
2023-02-01T15:34:02.926Z,101611.38
2023-02-01T15:36:29.937Z,101614.97
2023-02-01T15:39:26.866Z,101615.59
2023-02-01T15:41:59.524Z,101619.81
2023-02-01T15:44:31.647Z,101625.66
2023-02-01T15:46:59.696Z,101612.97
2023-02-01T15:49:29.776Z,101618.00
2023-02-01T15:51:58.932Z,101630.50
2023-02-01T15:54:33.319Z,101625.59
2023-02-01T15:57:03.348Z,101628.69
2023-02-01T15:59:45.492Z,101619.09
2023-02-01T16:02:52.838Z,101628.31
2023-02-01T16:05:38.225Z,101627.81
2023-02-01T16:08:16.146Z,101620.66
2023-02-01T16:10:48.839Z,101623.75
2023-02-01T16:13:17.182Z,101628.44
2023-02-01T16:15:44.579Z,101618.53
2023-02-01T16:18:12.873Z,101623.53
2023-02-01T16:20:43.638Z,101621.94
2023-02-01T16:23:11.671Z,101624.16
2023-02-01T16:25:39.392Z,101631.66
2023-02-01T16:28:06.482Z,101628.06
2023-02-01T16:30:34.268Z,101633.09
2023-02-01T16:33:06.412Z,101642.03
2023-02-01T16:35:37.808Z,101632.09
2023-02-01T16:38:14.318Z,101637.13
2023-02-01T16:40:43.021Z,101643.75
2023-02-01T16:43:18.397Z,101634.97
2023-02-01T16:45:49.459Z,101632.84
2023-02-01T16:48:38.107Z,101632.34
2023-02-01T16:51:14.103Z,101637.38
2023-02-01T16:53:53.533Z,101630.53
2023-02-01T16:56:29.919Z,101643.03
2023-02-01T16:58:57.395Z,101625.94
2023-02-01T17:01:24.932Z,101638.13
2023-02-01T17:03:51.815Z,101638.75
2023-02-01T17:06:22.654Z,101643.44
2023-02-01T17:08:53.527Z,101648.47
2023-02-01T17:11:20.307Z,101657.06
2023-02-01T17:13:47.683Z,101655.94
2023-02-01T17:16:27.921Z,101654.63
2023-02-01T17:19:16.291Z,101659.63
2023-02-01T17:21:47.407Z,101661.09
2023-02-01T17:24:15.657Z,101672.13
2023-02-01T17:26:43.870Z,101677.94
2023-02-01T17:29:11.373Z,101663.31
2023-02-01T17:31:41.896Z,101675.19
2023-02-01T17:34:15.636Z,101686.22
2023-02-01T17:36:43.454Z,101690.94
2023-02-01T17:39:11.147Z,101698.41
2023-02-01T17:41:39.556Z,101705.88
2023-02-01T17:44:06.366Z,101703.41
2023-02-01T17:46:33.091Z,101706.16
2023-02-01T17:49:01.399Z,101702.63
2023-02-01T17:51:29.329Z,101697.72
2023-02-01T17:53:56.542Z,101708.75
2023-02-01T17:56:25.486Z,101712.63
2023-02-01T17:58:52.340Z,101697.22
2023-02-01T18:01:23.483Z,101692.00
2023-02-01T18:03:51.050Z,101695.06
2023-02-01T18:06:21.309Z,101694.03
2023-02-01T18:08:48.344Z,101698.56
2023-02-01T18:11:18.057Z,101706.94
2023-02-01T18:13:45.796Z,101698.25
2023-02-01T18:16:33.912Z,101704.69
2023-02-01T18:19:05.074Z,101702.56
2023-02-01T18:21:43.934Z,101699.59
2023-02-01T18:24:15.035Z,101698.78
2023-02-01T18:26:42.877Z,101703.47
2023-02-01T18:29:09.682Z,101707.84
2023-02-01T18:31:44.364Z,101709.22
2023-02-01T18:34:14.378Z,101713.91
2023-02-01T18:36:41.977Z,101713.59
2023-02-01T18:39:09.464Z,101719.94
2023-02-01T18:41:36.098Z,101721.59
2023-02-01T18:44:03.256Z,101716.84
2023-02-01T18:46:30.093Z,101717.69
2023-02-01T18:48:56.735Z,101738.66
2023-02-01T18:51:24.631Z,101733.13
2023-02-01T18:53:51.723Z,101740.56
2023-02-01T18:56:19.621Z,101732.28
2023-02-01T18:58:46.537Z,101737.50
2023-02-01T19:01:17.177Z,101744.16
2023-02-01T19:03:46.464Z,101735.38
2023-02-01T19:06:20.731Z,101739.25
2023-02-01T19:08:47.943Z,101747.84
2023-02-01T19:11:14.734Z,101752.53
2023-02-01T19:13:41.800Z,101756.41
2023-02-01T19:16:11.919Z,101755.09
2023-02-01T19:18:39.363Z,101755.09
2023-02-01T19:21:09.032Z,101758.16
2023-02-01T19:23:36.160Z,101738.31
2023-02-01T19:26:02.870Z,101746.09
2023-02-01T19:28:30.200Z,101739.84
2023-02-01T19:31:04.860Z,101746.25
2023-02-01T19:33:32.020Z,101744.09
2023-02-01T19:35:59.878Z,101744.22
2023-02-01T19:38:26.996Z,101751.47
2023-02-01T19:40:56.024Z,101754.84
2023-02-01T19:43:23.298Z,101755.44
2023-02-01T19:45:50.077Z,101764.31
2023-02-01T19:48:18.736Z,101766.34
2023-02-01T19:50:45.839Z,101762.56
2023-02-01T19:53:12.962Z,101761.84
2023-02-01T19:55:44.588Z,101749.75
2023-02-01T19:58:11.205Z,101751.50
2023-02-01T20:00:36.922Z,101750.16
2023-02-01T20:03:03.699Z,101748.28
2023-02-01T20:05:30.410Z,101744.19
2023-02-01T20:07:57.671Z,101742.34
2023-02-01T20:10:24.793Z,101742.13
2023-02-01T20:12:51.510Z,101739.19
2023-02-01T20:15:18.281Z,101734.56
2023-02-01T20:17:45.016Z,101734.03
2023-02-01T20:20:11.792Z,101743.72
2023-02-01T20:22:38.504Z,101749.84
2023-02-01T20:25:06.180Z,101750.44
2023-02-01T20:27:33.864Z,101755.75
2023-02-01T20:30:00.603Z,101755.50
2023-02-01T20:32:27.344Z,101762.44
2023-02-01T20:34:54.582Z,101766.59
2023-02-01T20:37:21.616Z,101761.69
2023-02-01T20:39:48.365Z,101765.59
2023-02-01T20:42:15.072Z,101768.94
2023-02-01T20:44:43.807Z,101771.13
2023-02-01T20:47:10.427Z,101767.06
2023-02-01T20:49:37.807Z,101761.84
2023-02-01T20:52:04.480Z,101757.44
2023-02-01T20:54:32.538Z,101739.31
2023-02-01T20:56:59.241Z,101749.50
2023-02-01T20:59:25.932Z,101744.28
2023-02-01T21:01:53.112Z,101747.03
2023-02-01T21:04:25.257Z,101740.72
2023-02-01T21:06:51.833Z,101739.91
2023-02-01T21:09:18.726Z,101746.50
2023-02-01T21:11:46.098Z,101745.69
2023-02-01T21:14:12.790Z,101754.78
2023-02-01T21:16:39.728Z,101748.16
2023-02-01T21:19:06.794Z,101746.44
2023-02-01T21:21:33.478Z,101746.34
2023-02-01T21:24:00.684Z,101744.06
2023-02-01T21:26:28.353Z,101743.97
2023-02-01T21:28:56.438Z,101751.06
2023-02-01T21:31:25.777Z,101750.16
2023-02-01T21:33:53.024Z,101749.56
2023-02-01T21:36:20.131Z,101747.00
2023-02-01T21:38:51.534Z,101750.28
2023-02-01T21:41:43.365Z,101742.53
2023-02-01T21:44:11.348Z,101744.16
2023-02-01T21:46:38.036Z,101741.63
2023-02-01T21:49:06.315Z,101739.09
2023-02-01T21:51:35.356Z,101747.56
2023-02-01T21:54:02.156Z,101731.25
2023-02-01T21:56:29.333Z,101729.00
2023-02-01T21:58:56.162Z,101709.09
2023-02-01T22:01:23.190Z,101715.94
2023-02-01T22:03:49.900Z,101709.00
2023-02-01T22:06:28.764Z,101708.72
2023-02-01T22:08:55.603Z,101713.91
2023-02-01T22:11:22.537Z,101721.59
2023-02-01T22:13:49.357Z,101712.22
2023-02-01T22:16:18.235Z,101715.47
2023-02-01T22:18:45.835Z,101718.72
2023-02-01T22:21:12.849Z,101723.13
2023-02-01T22:23:39.512Z,101710.97
2023-02-01T22:26:09.080Z,101718.97
2023-02-01T22:28:37.201Z,101720.56
2023-02-01T22:31:05.549Z,101708.75
2023-02-01T22:33:33.681Z,101704.84
2023-02-01T22:36:01.248Z,101692.22
2023-02-01T22:38:34.193Z,101691.16
2023-02-01T22:41:06.250Z,101698.09
2023-02-01T22:43:33.782Z,101694.03
2023-02-01T22:46:06.681Z,101699.03
2023-02-01T22:48:36.815Z,101702.88
2023-02-01T22:51:04.260Z,101692.19
2023-02-01T22:53:31.755Z,101702.38
2023-02-01T22:56:06.370Z,101699.63
2023-02-01T22:58:36.005Z,101698.53
2023-02-01T23:01:10.499Z,101704.53
2023-02-01T23:03:38.845Z,101701.19
2023-02-01T23:06:07.383Z,101704.44
2023-02-01T23:08:39.510Z,101700.56
2023-02-01T23:11:09.160Z,101706.59
2023-02-01T23:13:37.008Z,101696.41
2023-02-01T23:16:09.491Z,101695.25
2023-02-01T23:18:36.338Z,101697.19
2023-02-01T23:21:05.435Z,101704.84
2023-02-01T23:23:32.175Z,101695.75
2023-02-01T23:25:59.113Z,101707.31
2023-02-01T23:28:27.069Z,101698.44
2023-02-01T23:30:54.219Z,101694.88
2023-02-01T23:33:25.034Z,101675.56
2023-02-01T23:36:12.371Z,101686.28
2023-02-01T23:38:39.067Z,101687.09
2023-02-01T23:41:07.471Z,101689.84
2023-02-01T23:43:52.705Z,101688.22
2023-02-01T23:46:19.875Z,101690.97
2023-02-01T23:48:48.454Z,101682.69
2023-02-01T23:51:16.029Z,101675.25
2023-02-01T23:53:44.837Z,101667.47
2023-02-01T23:56:23.831Z,101669.44
2023-02-01T23:58:51.987Z,101672.19
